createdAt,value
2022-09-09T00:02:14.173Z,14.50
2022-09-09T00:04:55.205Z,14.50
2022-09-09T00:07:48.470Z,14.50
2022-09-09T00:10:45.182Z,14.40
2022-09-09T00:13:38.261Z,14.50
2022-09-09T00:16:26.962Z,14.40
2022-09-09T00:19:34.957Z,14.30
2022-09-09T00:22:29.601Z,14.30
2022-09-09T00:25:14.016Z,14.30
2022-09-09T00:27:51.674Z,14.40
2022-09-09T00:30:32.742Z,14.30
2022-09-09T00:33:15.463Z,14.20
2022-09-09T00:35:48.289Z,14.20
2022-09-09T00:38:22.142Z,14.20
2022-09-09T00:41:00.287Z,14.20
2022-09-09T00:43:36.572Z,14.20
2022-09-09T00:46:36.788Z,14.10
2022-09-09T00:49:30.676Z,14.10
2022-09-09T00:52:43.068Z,14.00
2022-09-09T00:55:57.166Z,14.00
2022-09-09T00:58:31.338Z,14.20
2022-09-09T01:01:29.209Z,14.20
2022-09-09T01:04:01.758Z,14.20
2022-09-09T01:06:42.169Z,14.10
2022-09-09T01:09:37.537Z,14.10
2022-09-09T01:12:45.000Z,14.20
2022-09-09T01:15:42.489Z,14.00
2022-09-09T01:18:20.074Z,14.00
2022-09-09T01:21:03.509Z,14.00
2022-09-09T01:24:10.702Z,14.00
2022-09-09T01:27:11.298Z,14.10
2022-09-09T01:29:43.204Z,14.00
2022-09-09T01:32:51.632Z,13.90
2022-09-09T01:35:36.319Z,13.90
2022-09-09T01:38:06.063Z,13.80
2022-09-09T01:40:37.269Z,13.90
2022-09-09T01:43:07.909Z,13.90
2022-09-09T01:48:23.225Z,13.80
2022-09-09T01:51:03.969Z,13.80
2022-09-09T01:53:34.888Z,13.80
2022-09-09T01:56:17.405Z,13.80
2022-09-09T01:59:11.528Z,13.80
2022-09-09T02:02:33.861Z,13.80
2022-09-09T02:05:41.072Z,13.70
2022-09-09T02:08:47.533Z,13.70
2022-09-09T02:11:23.349Z,13.70
2022-09-09T02:14:15.447Z,13.70
2022-09-09T02:16:59.109Z,13.70
2022-09-09T02:19:49.973Z,13.70
2022-09-09T02:22:42.444Z,13.70
2022-09-09T02:25:18.841Z,13.70
2022-09-09T02:27:53.535Z,13.80
2022-09-09T02:30:23.985Z,13.80
2022-09-09T02:33:14.031Z,13.80
2022-09-09T02:35:49.955Z,13.70
2022-09-09T02:38:30.386Z,13.70
2022-09-09T02:41:04.950Z,13.70
2022-09-09T02:47:01.234Z,13.70
2022-09-09T02:49:47.222Z,13.70
2022-09-09T02:52:20.236Z,13.60
2022-09-09T02:55:00.428Z,13.60
2022-09-09T02:57:32.314Z,13.70
2022-09-09T03:00:03.727Z,13.60
2022-09-09T03:02:34.285Z,13.60
2022-09-09T03:07:53.564Z,13.70
2022-09-09T03:10:23.887Z,13.70
2022-09-09T03:12:52.541Z,13.60
2022-09-09T03:23:39.233Z,13.50
2022-09-09T03:26:09.458Z,13.40
2022-09-09T03:31:36.660Z,13.50
2022-09-09T03:34:06.892Z,13.60
2022-09-09T03:36:40.719Z,13.70
2022-09-09T03:39:09.377Z,13.60
2022-09-09T03:41:39.839Z,13.60
2022-09-09T03:44:21.173Z,13.50
2022-09-09T03:49:34.444Z,13.60
2022-09-09T03:52:03.113Z,13.50
2022-09-09T03:54:31.648Z,13.50
2022-09-09T03:57:02.133Z,13.40
2022-09-09T03:59:31.934Z,13.40
2022-09-09T04:02:01.222Z,13.40
2022-09-09T04:04:33.391Z,13.30
2022-09-09T04:07:03.426Z,13.30
2022-09-09T04:09:38.361Z,13.30
2022-09-09T04:12:08.620Z,13.20
2022-09-09T04:14:37.885Z,13.20
2022-09-09T04:17:07.391Z,13.10
2022-09-09T04:19:37.230Z,13.20
2022-09-09T04:22:08.247Z,13.10
2022-09-09T04:24:37.399Z,13.10
2022-09-09T04:27:08.546Z,13.10
2022-09-09T04:29:37.446Z,13.10
2022-09-09T04:32:06.377Z,13.10
2022-09-09T04:37:20.266Z,13.20
2022-09-09T04:39:59.729Z,13.20
2022-09-09T04:42:29.967Z,13.10
2022-09-09T04:45:15.580Z,13.00
2022-09-09T04:47:46.566Z,13.00
2022-09-09T04:50:18.086Z,13.10
2022-09-09T04:52:50.337Z,13.10
2022-09-09T04:55:23.984Z,13.10
2022-09-09T04:57:59.534Z,13.00
2022-09-09T05:00:29.063Z,12.90
2022-09-09T05:02:58.492Z,12.90
2022-09-09T05:08:12.331Z,13.10
2022-09-09T05:10:43.565Z,13.10
2022-09-09T05:13:15.435Z,13.10
2022-09-09T05:15:58.082Z,13.10
2022-09-09T05:18:28.504Z,13.10
2022-09-09T05:21:04.735Z,13.10
2022-09-09T05:23:37.253Z,13.20
2022-09-09T05:26:09.084Z,13.20
2022-09-09T05:28:40.779Z,13.20
2022-09-09T05:31:15.672Z,13.10
2022-09-09T05:33:47.793Z,13.10
2022-09-09T05:36:22.098Z,13.10
2022-09-09T05:38:56.508Z,13.20
2022-09-09T05:41:27.316Z,13.30
2022-09-09T05:44:02.550Z,13.40
2022-09-09T05:46:31.451Z,13.40
2022-09-09T05:49:00.263Z,13.40
2022-09-09T05:51:35.993Z,13.50
2022-09-09T05:54:09.531Z,13.50
2022-09-09T05:56:43.126Z,13.50
2022-09-09T06:02:03.398Z,13.50
2022-09-09T06:04:38.175Z,13.60
2022-09-09T06:07:10.576Z,13.60
2022-09-09T06:09:37.941Z,13.60
2022-09-09T06:12:07.297Z,13.60
2022-09-09T06:14:44.382Z,13.60
2022-09-09T06:17:19.037Z,13.60
2022-09-09T06:22:35.137Z,13.90
2022-09-09T06:27:51.935Z,14.40
2022-09-09T06:30:23.021Z,14.70
2022-09-09T06:32:59.094Z,15.00
2022-09-09T06:38:17.028Z,15.50
2022-09-09T06:40:55.755Z,15.60
2022-09-09T06:43:25.988Z,15.40
2022-09-09T06:46:02.769Z,15.50
2022-09-09T06:48:36.227Z,15.50
2022-09-09T06:51:12.565Z,15.50
2022-09-09T06:53:49.753Z,15.40
2022-09-09T06:56:18.162Z,15.50
2022-09-09T06:58:50.244Z,15.60
2022-09-09T07:01:29.564Z,15.60
2022-09-09T07:04:03.905Z,15.70
2022-09-09T07:06:44.068Z,15.60
2022-09-09T07:09:19.751Z,15.70
2022-09-09T07:11:59.136Z,15.70
2022-09-09T07:14:46.354Z,15.90
2022-09-09T07:17:17.529Z,16.10
2022-09-09T07:19:51.241Z,16.30
2022-09-09T07:22:23.335Z,16.70
2022-09-09T07:24:58.063Z,17.00
2022-09-09T07:27:27.225Z,17.00
2022-09-09T07:32:43.036Z,17.00
2022-09-09T07:35:13.516Z,17.00
2022-09-09T07:37:50.717Z,17.20
2022-09-09T07:40:23.707Z,17.40
2022-09-09T07:42:54.893Z,17.90
2022-09-09T07:48:11.012Z,18.30
2022-09-09T07:50:38.756Z,18.70
2022-09-09T07:53:11.460Z,19.10
2022-09-09T07:55:42.497Z,19.20
2022-09-09T07:58:11.845Z,19.20
2022-09-09T08:00:48.161Z,19.20
2022-09-09T08:03:17.167Z,19.00
2022-09-09T08:05:48.301Z,19.00
2022-09-09T08:08:22.927Z,19.10
2022-09-09T08:10:52.570Z,19.10
2022-09-09T08:13:22.753Z,19.10
2022-09-09T08:16:00.545Z,19.30
2022-09-09T08:18:30.064Z,19.30
2022-09-09T08:21:01.500Z,19.40
2022-09-09T08:23:42.812Z,19.40
2022-09-09T08:26:22.986Z,19.40
2022-09-09T08:28:58.098Z,19.40
2022-09-09T08:31:39.614Z,19.70
2022-09-09T08:34:18.843Z,20.00
2022-09-09T08:36:54.172Z,20.20
2022-09-09T08:39:28.211Z,20.40
2022-09-09T08:42:23.632Z,20.30
2022-09-09T08:45:30.905Z,20.50
2022-09-09T08:48:47.474Z,20.90
2022-09-09T08:51:21.098Z,21.20
2022-09-09T08:53:55.381Z,21.30
2022-09-09T08:56:28.158Z,21.30
2022-09-09T08:59:04.063Z,21.40
2022-09-09T09:02:34.644Z,21.30
2022-09-09T09:05:35.192Z,21.40
2022-09-09T09:08:55.085Z,21.50
2022-09-09T09:11:24.826Z,21.90
2022-09-09T09:14:07.610Z,22.10
2022-09-09T09:17:12.514Z,22.20
2022-09-09T09:19:49.612Z,22.20
2022-09-09T09:22:45.376Z,22.10
2022-09-09T09:25:20.430Z,22.10
2022-09-09T09:28:23.227Z,22.40
2022-09-09T09:31:03.207Z,22.60
2022-09-09T09:33:56.415Z,22.70
2022-09-09T09:36:50.404Z,22.40
2022-09-09T09:42:33.085Z,22.40
2022-09-09T09:45:35.452Z,22.60
2022-09-09T09:48:14.701Z,22.70
2022-09-09T09:50:58.138Z,22.50
2022-09-09T09:53:35.506Z,22.40
2022-09-09T09:56:17.075Z,22.60
2022-09-09T09:58:57.765Z,22.70
2022-09-09T10:01:41.044Z,22.80
2022-09-09T10:04:22.030Z,22.90
2022-09-09T10:09:37.453Z,23.20
2022-09-09T10:12:45.547Z,23.10
2022-09-09T10:15:48.996Z,23.30
2022-09-09T10:18:47.655Z,23.40
2022-09-09T10:21:46.757Z,23.40
2022-09-09T10:24:53.822Z,23.20
2022-09-09T10:27:58.923Z,23.00
2022-09-09T10:30:59.758Z,23.00
2022-09-09T10:34:05.801Z,23.10
2022-09-09T10:36:42.554Z,23.00
2022-09-09T10:39:39.183Z,22.80
2022-09-09T10:42:16.429Z,22.90
2022-09-09T10:45:07.178Z,23.30
2022-09-09T10:48:03.023Z,23.40
2022-09-09T10:51:25.465Z,23.70
2022-09-09T10:54:24.905Z,23.90
2022-09-09T10:56:59.432Z,24.30
2022-09-09T10:59:37.545Z,24.50
2022-09-09T11:02:34.776Z,24.40
2022-09-09T11:05:30.757Z,24.20
2022-09-09T11:08:06.058Z,24.20
2022-09-09T11:11:03.534Z,24.20
2022-09-09T11:14:04.979Z,24.00
2022-09-09T11:16:59.943Z,24.00
2022-09-09T11:19:44.627Z,23.80
2022-09-09T11:22:37.221Z,23.50
2022-09-09T11:25:33.858Z,23.20
2022-09-09T11:28:36.224Z,23.30
2022-09-09T11:31:21.334Z,23.50
2022-09-09T11:34:20.185Z,23.40
2022-09-09T11:37:33.740Z,23.50
2022-09-09T11:40:28.408Z,23.50
2022-09-09T11:43:07.016Z,23.60
2022-09-09T11:45:37.551Z,23.70
2022-09-09T11:48:08.543Z,23.60
2022-09-09T11:50:43.325Z,23.80
2022-09-09T11:53:24.101Z,24.10
2022-09-09T11:56:17.780Z,24.30
2022-09-09T11:59:07.862Z,24.20
2022-09-09T12:02:25.463Z,24.20
2022-09-09T12:05:17.503Z,24.20
2022-09-09T12:08:23.886Z,24.20
2022-09-09T12:11:03.938Z,24.20
2022-09-09T12:13:35.001Z,24.30
2022-09-09T12:16:06.671Z,24.40
2022-09-09T12:18:41.660Z,24.60
2022-09-09T12:22:09.858Z,24.80
2022-09-09T12:24:50.430Z,25.00
2022-09-09T12:27:31.429Z,25.20
2022-09-09T12:30:03.431Z,25.30
2022-09-09T12:32:34.669Z,25.20
2022-09-09T12:35:24.235Z,25.00
2022-09-09T12:38:23.851Z,24.90
2022-09-09T12:40:59.735Z,24.70
2022-09-09T12:43:30.990Z,24.60
2022-09-09T12:46:07.699Z,24.50
2022-09-09T12:48:56.686Z,24.40
2022-09-09T12:51:33.751Z,24.20
2022-09-09T12:54:06.907Z,24.10
2022-09-09T12:56:37.360Z,24.00
2022-09-09T12:59:08.119Z,23.90
2022-09-09T13:01:39.376Z,23.80
2022-09-09T13:04:24.646Z,23.60
2022-09-09T13:06:54.696Z,23.50
2022-09-09T13:09:31.910Z,23.40
2022-09-09T13:12:03.945Z,23.30
2022-09-09T13:14:35.763Z,23.30
2022-09-09T13:17:06.856Z,23.20
2022-09-09T13:19:41.293Z,23.10
2022-09-09T13:22:22.324Z,23.00
2022-09-09T13:25:17.870Z,23.00
2022-09-09T13:28:06.247Z,22.90
2022-09-09T13:30:41.277Z,22.80
2022-09-09T13:33:21.587Z,22.80
2022-09-09T13:36:00.259Z,22.80
2022-09-09T13:38:31.414Z,22.70
2022-09-09T13:41:14.154Z,22.60
2022-09-09T13:43:48.748Z,22.50
2022-09-09T13:46:42.472Z,22.50
2022-09-09T13:49:30.582Z,22.40
2022-09-09T13:52:10.449Z,22.40
2022-09-09T13:54:41.225Z,22.30
2022-09-09T13:57:26.313Z,22.30
2022-09-09T14:00:05.741Z,22.20
2022-09-09T14:02:37.969Z,22.10
2022-09-09T14:07:57.077Z,21.90
2022-09-09T14:10:25.460Z,21.70
2022-09-09T14:12:57.428Z,21.30
2022-09-09T14:15:24.852Z,21.10
2022-09-09T14:17:57.377Z,20.70
2022-09-09T14:23:12.971Z,20.40
2022-09-09T14:25:44.941Z,20.20
2022-09-09T14:28:39.332Z,19.90
2022-09-09T14:31:23.330Z,19.90
2022-09-09T14:33:57.357Z,19.70
2022-09-09T14:36:28.315Z,19.60
2022-09-09T14:41:43.095Z,19.30
2022-09-09T14:44:12.997Z,19.30
2022-09-09T14:46:40.565Z,19.20
2022-09-09T14:49:16.472Z,19.20
2022-09-09T14:51:51.509Z,19.20
2022-09-09T14:54:24.286Z,19.20
2022-09-09T14:56:55.256Z,19.20
2022-09-09T14:59:29.145Z,19.00
2022-09-09T15:02:07.675Z,19.00
2022-09-09T15:04:36.527Z,19.00
2022-09-09T15:07:17.248Z,18.90
2022-09-09T15:09:56.765Z,18.80
2022-09-09T15:12:26.363Z,18.90
2022-09-09T15:14:57.071Z,18.80
2022-09-09T15:20:51.662Z,18.80
2022-09-09T15:23:28.757Z,18.80
2022-09-09T15:25:58.817Z,18.80
2022-09-09T15:28:32.531Z,18.70
2022-09-09T15:31:09.934Z,18.80
2022-09-09T15:33:40.719Z,18.70
2022-09-09T15:36:25.460Z,18.70
2022-09-09T15:38:55.453Z,18.70
2022-09-09T15:41:27.485Z,18.80
2022-09-09T15:44:00.184Z,18.80
2022-09-09T15:47:00.329Z,18.70
2022-09-09T15:49:31.909Z,18.70
2022-09-09T15:52:04.541Z,18.60
2022-09-09T15:54:35.912Z,18.50
2022-09-09T15:57:08.262Z,18.50
2022-09-09T15:59:39.397Z,18.50
2022-09-09T16:02:12.195Z,18.50
2022-09-09T16:04:44.000Z,18.50
2022-09-09T16:07:12.899Z,18.50
2022-09-09T16:09:41.470Z,18.50
2022-09-09T16:12:17.225Z,18.40
2022-09-09T16:14:46.068Z,18.30
2022-09-09T16:17:16.368Z,18.30
2022-09-09T16:19:49.288Z,18.30
2022-09-09T16:22:22.888Z,18.30
2022-09-09T16:24:53.925Z,18.30
2022-09-09T16:27:29.229Z,18.30
2022-09-09T16:30:01.015Z,18.20
2022-09-09T16:32:30.886Z,18.10
2022-09-09T16:35:02.292Z,18.00
2022-09-09T16:40:14.061Z,17.90
2022-09-09T16:42:43.945Z,18.00
2022-09-09T16:48:02.097Z,17.90
2022-09-09T16:53:25.621Z,17.90
2022-09-09T16:55:56.144Z,17.90
2022-09-09T16:58:25.368Z,17.90
2022-09-09T17:01:00.590Z,17.90
2022-09-09T17:03:40.743Z,17.80
2022-09-09T17:06:15.634Z,17.80
2022-09-09T17:11:29.540Z,17.80
2022-09-09T17:14:01.795Z,17.80
2022-09-09T17:16:32.680Z,17.70
2022-09-09T17:19:02.651Z,17.50
2022-09-09T17:21:32.200Z,17.50
2022-09-09T17:24:01.404Z,17.50
2022-09-09T17:26:40.445Z,17.40
2022-09-09T17:29:10.369Z,17.40
2022-09-09T17:31:40.254Z,17.40
2022-09-09T17:34:11.792Z,17.40
2022-09-09T17:36:40.894Z,17.30
2022-09-09T17:39:11.999Z,17.30
2022-09-09T17:41:42.265Z,17.20
2022-09-09T17:46:56.196Z,17.20
2022-09-09T17:49:28.704Z,17.20
2022-09-09T17:51:59.182Z,17.10
2022-09-09T17:54:33.095Z,17.10
2022-09-09T17:57:01.978Z,17.10
2022-09-09T17:59:31.600Z,17.00
2022-09-09T18:02:00.611Z,17.00
2022-09-09T18:04:30.819Z,17.00
2022-09-09T18:07:04.216Z,16.90
2022-09-09T18:09:34.269Z,16.90
2022-09-09T18:12:02.591Z,16.90
2022-09-09T18:14:34.808Z,16.90
2022-09-09T18:17:07.013Z,16.80
2022-09-09T18:19:37.826Z,16.70
2022-09-09T18:22:09.377Z,16.70
2022-09-09T18:24:41.421Z,16.70
2022-09-09T18:27:15.549Z,16.70
2022-09-09T18:29:46.447Z,16.70
2022-09-09T18:32:17.480Z,16.70
2022-09-09T18:34:50.676Z,16.70
2022-09-09T18:37:21.700Z,16.60
2022-09-09T18:39:52.160Z,16.60
2022-09-09T18:42:34.231Z,16.50
2022-09-09T18:45:03.635Z,16.50
2022-09-09T18:47:35.381Z,16.50
2022-09-09T18:50:07.829Z,16.50
2022-09-09T18:52:38.564Z,16.40
2022-09-09T18:55:11.750Z,16.40
2022-09-09T18:57:41.447Z,16.40
2022-09-09T19:00:12.722Z,16.40
2022-09-09T19:02:43.335Z,16.40
2022-09-09T19:05:10.830Z,16.40
2022-09-09T19:07:43.122Z,16.40
2022-09-09T19:10:20.714Z,16.40
2022-09-09T19:12:50.498Z,16.40
2022-09-09T19:15:21.373Z,16.40
2022-09-09T19:17:51.566Z,16.40
2022-09-09T19:20:24.336Z,16.40
2022-09-09T19:22:52.227Z,16.40
2022-09-09T19:25:28.030Z,16.40
2022-09-09T19:28:03.328Z,16.30
2022-09-09T19:30:31.029Z,16.30
2022-09-09T19:33:04.041Z,16.30
2022-09-09T19:35:35.645Z,16.30
2022-09-09T19:38:03.214Z,16.30
2022-09-09T19:40:35.616Z,16.30
2022-09-09T19:43:05.602Z,16.30
2022-09-09T19:45:38.780Z,16.30
2022-09-09T19:48:09.521Z,16.20
2022-09-09T19:53:23.804Z,16.30
2022-09-09T19:55:57.139Z,16.30
2022-09-09T19:58:29.453Z,16.30
2022-09-09T20:01:06.425Z,16.30
2022-09-09T20:03:38.317Z,16.30
2022-09-09T20:06:09.469Z,16.20
2022-09-09T20:08:39.332Z,16.20
2022-09-09T20:11:10.552Z,16.20
2022-09-09T20:13:41.734Z,16.20
2022-09-09T20:19:02.974Z,16.10
2022-09-09T20:21:41.871Z,16.10
2022-09-09T20:24:19.412Z,16.10
2022-09-09T20:26:49.259Z,16.10
2022-09-09T20:29:19.931Z,16.10
2022-09-09T20:31:51.870Z,16.10
2022-09-09T20:34:22.770Z,16.10
2022-09-09T20:36:55.572Z,16.00
2022-09-09T20:39:33.049Z,16.10
2022-09-09T20:42:03.006Z,16.10
2022-09-09T20:44:32.187Z,16.10
2022-09-09T20:47:08.905Z,16.00
2022-09-09T20:49:39.301Z,16.10
2022-09-09T20:52:14.165Z,16.10
2022-09-09T20:54:44.782Z,16.00
2022-09-09T20:57:14.466Z,16.00
2022-09-09T20:59:45.783Z,16.00
2022-09-09T21:02:14.687Z,15.90
2022-09-09T21:04:52.088Z,15.90
2022-09-09T21:07:22.763Z,15.90
2022-09-09T21:09:52.127Z,15.90
2022-09-09T21:12:22.861Z,15.90
2022-09-09T21:14:54.241Z,15.80
2022-09-09T21:17:24.847Z,15.90
2022-09-09T21:19:56.368Z,15.90
2022-09-09T21:22:27.573Z,15.90
2022-09-09T21:25:00.814Z,16.00
2022-09-09T21:27:30.179Z,16.00
2022-09-09T21:32:44.239Z,16.10
2022-09-09T21:35:13.387Z,16.00
2022-09-09T21:37:40.932Z,16.00
2022-09-09T21:40:12.726Z,16.00
2022-09-09T21:42:44.180Z,15.90
2022-09-09T21:45:15.123Z,15.90
2022-09-09T21:47:53.697Z,15.90
2022-09-09T21:50:28.532Z,15.70
2022-09-09T21:53:00.754Z,15.70
2022-09-09T21:55:29.180Z,15.70
2022-09-09T21:57:57.158Z,15.70
2022-09-09T22:00:28.986Z,15.70
2022-09-09T22:03:08.789Z,15.70
2022-09-09T22:05:44.110Z,15.70
2022-09-09T22:08:13.886Z,15.70
2022-09-09T22:10:49.711Z,15.60
2022-09-09T22:13:18.050Z,15.60
2022-09-09T22:15:50.202Z,15.50
2022-09-09T22:18:21.142Z,15.60
2022-09-09T22:20:50.794Z,15.60
2022-09-09T22:23:21.838Z,15.60
2022-09-09T22:25:57.035Z,15.60
2022-09-09T22:28:27.507Z,15.60
2022-09-09T22:33:41.277Z,15.50
2022-09-09T22:36:12.441Z,15.60
2022-09-09T22:38:43.306Z,15.60
2022-09-09T22:41:13.889Z,15.60
2022-09-09T22:43:46.140Z,15.50
2022-09-09T22:46:14.300Z,15.40
2022-09-09T22:48:43.855Z,15.50
2022-09-09T22:51:14.118Z,15.50
2022-09-09T22:53:46.854Z,15.50
2022-09-09T22:56:21.972Z,15.50
2022-09-09T22:58:55.725Z,15.50
2022-09-09T23:01:34.064Z,15.40
2022-09-09T23:04:03.461Z,15.40
2022-09-09T23:06:35.625Z,15.50
2022-09-09T23:09:07.793Z,15.50
2022-09-09T23:11:37.064Z,15.50
2022-09-09T23:14:12.944Z,15.50
2022-09-09T23:16:44.741Z,15.50
2022-09-09T23:19:16.029Z,15.40
2022-09-09T23:21:48.444Z,15.40
2022-09-09T23:24:17.732Z,15.40
2022-09-09T23:26:47.439Z,15.30
2022-09-09T23:29:15.301Z,15.40
2022-09-09T23:31:45.783Z,15.40
2022-09-09T23:34:14.192Z,15.40
2022-09-09T23:36:43.263Z,15.40
2022-09-09T23:39:12.291Z,15.40
2022-09-09T23:41:42.416Z,15.40
2022-09-09T23:44:12.543Z,15.50
2022-09-09T23:46:44.155Z,15.50
2022-09-09T23:49:12.980Z,15.50
2022-09-09T23:51:42.874Z,15.40
2022-09-09T23:56:56.962Z,15.30
2022-09-09T23:59:28.225Z,15.30
